sensor_id;sensor_type;location;lat;lon;timestamp;P1;durP1;ratioP1;P2;durP2;ratioP2
3280;SDS011;1652;51.318;6.202;2023-10-31T00:01:55;17.60;;;15.80;;
3280;SDS011;1652;51.318;6.202;2023-10-31T00:04:22;18.53;;;15.43;;
3280;SDS011;1652;51.318;6.202;2023-10-31T00:06:49;17.13;;;15.37;;
3280;SDS011;1652;51.318;6.202;2023-10-31T00:09:16;15.60;;;14.03;;
3280;SDS011;1652;51.318;6.202;2023-10-31T00:11:43;15.13;;;13.60;;
3280;SDS011;1652;51.318;6.202;2023-10-31T00:14:10;14.83;;;13.20;;
3280;SDS011;1652;51.318;6.202;2023-10-31T00:16:56;14.43;;;12.97;;
3280;SDS011;1652;51.318;6.202;2023-10-31T00:19:23;16.13;;;13.03;;
3280;SDS011;1652;51.318;6.202;2023-10-31T00:21:50;19.03;;;13.67;;
3280;SDS011;1652;51.318;6.202;2023-10-31T00:24:17;15.30;;;12.57;;
3280;SDS011;1652;51.318;6.202;2023-10-31T00:26:44;13.87;;;12.47;;
3280;SDS011;1652;51.318;6.202;2023-10-31T00:29:11;14.10;;;11.80;;
3280;SDS011;1652;51.318;6.202;2023-10-31T00:31:38;16.73;;;12.93;;
3280;SDS011;1652;51.318;6.202;2023-10-31T00:34:08;16.00;;;12.13;;
3280;SDS011;1652;51.318;6.202;2023-10-31T00:36:35;13.27;;;11.27;;
3280;SDS011;1652;51.318;6.202;2023-10-31T00:39:02;12.27;;;11.03;;
3280;SDS011;1652;51.318;6.202;2023-10-31T00:41:29;13.87;;;10.90;;
3280;SDS011;1652;51.318;6.202;2023-10-31T00:43:56;11.47;;;10.00;;
3280;SDS011;1652;51.318;6.202;2023-10-31T00:46:23;11.30;;;9.60;;
3280;SDS011;1652;51.318;6.202;2023-10-31T00:48:50;10.87;;;9.70;;
3280;SDS011;1652;51.318;6.202;2023-10-31T00:51:17;8.93;;;8.13;;
3280;SDS011;1652;51.318;6.202;2023-10-31T00:53:44;11.93;;;8.50;;
3280;SDS011;1652;51.318;6.202;2023-10-31T00:56:11;9.20;;;8.17;;
3280;SDS011;1652;51.318;6.202;2023-10-31T00:58:38;11.73;;;8.00;;
3280;SDS011;1652;51.318;6.202;2023-10-31T01:01:05;11.80;;;8.30;;
3280;SDS011;1652;51.318;6.202;2023-10-31T01:03:32;8.53;;;7.10;;
3280;SDS011;1652;51.318;6.202;2023-10-31T01:05:59;11.33;;;6.33;;
3280;SDS011;1652;51.318;6.202;2023-10-31T01:08:26;10.30;;;6.67;;
3280;SDS011;1652;51.318;6.202;2023-10-31T01:10:53;13.53;;;6.10;;
3280;SDS011;1652;51.318;6.202;2023-10-31T01:13:20;10.60;;;6.07;;
3280;SDS011;1652;51.318;6.202;2023-10-31T01:15:47;9.90;;;6.63;;
3280;SDS011;1652;51.318;6.202;2023-10-31T01:18:14;7.40;;;6.80;;
3280;SDS011;1652;51.318;6.202;2023-10-31T01:20:41;13.27;;;6.77;;
3280;SDS011;1652;51.318;6.202;2023-10-31T01:23:08;12.57;;;7.93;;
3280;SDS011;1652;51.318;6.202;2023-10-31T01:25:35;13.47;;;8.30;;
3280;SDS011;1652;51.318;6.202;2023-10-31T01:28:02;13.83;;;8.87;;
3280;SDS011;1652;51.318;6.202;2023-10-31T01:30:29;12.87;;;9.40;;
3280;SDS011;1652;51.318;6.202;2023-10-31T01:32:56;18.73;;;9.80;;
3280;SDS011;1652;51.318;6.202;2023-10-31T01:35:23;14.37;;;9.40;;
3280;SDS011;1652;51.318;6.202;2023-10-31T01:37:50;14.40;;;10.33;;
3280;SDS011;1652;51.318;6.202;2023-10-31T01:40:16;19.20;;;11.37;;
3280;SDS011;1652;51.318;6.202;2023-10-31T01:42:44;14.27;;;11.10;;
3280;SDS011;1652;51.318;6.202;2023-10-31T01:45:11;19.63;;;11.73;;
3280;SDS011;1652;51.318;6.202;2023-10-31T01:47:38;21.10;;;15.30;;
3280;SDS011;1652;51.318;6.202;2023-10-31T01:50:06;24.27;;;13.10;;
3280;SDS011;1652;51.318;6.202;2023-10-31T01:52:33;14.07;;;11.30;;
3280;SDS011;1652;51.318;6.202;2023-10-31T01:55:02;19.73;;;13.10;;
3280;SDS011;1652;51.318;6.202;2023-10-31T01:57:30;17.10;;;12.57;;
3280;SDS011;1652;51.318;6.202;2023-10-31T01:59:57;15.40;;;10.67;;
3280;SDS011;1652;51.318;6.202;2023-10-31T02:02:25;14.40;;;10.87;;
3280;SDS011;1652;51.318;6.202;2023-10-31T02:04:54;23.50;;;15.00;;
3280;SDS011;1652;51.318;6.202;2023-10-31T02:07:22;15.13;;;11.30;;
3280;SDS011;1652;51.318;6.202;2023-10-31T02:09:49;15.90;;;9.10;;
3280;SDS011;1652;51.318;6.202;2023-10-31T02:12:32;17.33;;;10.83;;
3280;SDS011;1652;51.318;6.202;2023-10-31T02:15:03;13.30;;;10.23;;
3280;SDS011;1652;51.318;6.202;2023-10-31T02:17:30;17.00;;;10.63;;
3280;SDS011;1652;51.318;6.202;2023-10-31T02:19:57;11.90;;;8.73;;
3280;SDS011;1652;51.318;6.202;2023-10-31T02:22:24;13.47;;;9.50;;
3280;SDS011;1652;51.318;6.202;2023-10-31T02:24:51;17.30;;;9.27;;
3280;SDS011;1652;51.318;6.202;2023-10-31T02:27:18;13.60;;;9.00;;
3280;SDS011;1652;51.318;6.202;2023-10-31T02:29:45;13.37;;;9.93;;
3280;SDS011;1652;51.318;6.202;2023-10-31T02:32:12;20.30;;;10.37;;
3280;SDS011;1652;51.318;6.202;2023-10-31T02:34:39;15.23;;;10.40;;
3280;SDS011;1652;51.318;6.202;2023-10-31T02:37:06;17.67;;;11.50;;
3280;SDS011;1652;51.318;6.202;2023-10-31T02:39:33;13.23;;;9.00;;
3280;SDS011;1652;51.318;6.202;2023-10-31T02:42:01;10.27;;;8.20;;
3280;SDS011;1652;51.318;6.202;2023-10-31T02:44:28;14.57;;;10.90;;
3280;SDS011;1652;51.318;6.202;2023-10-31T02:46:55;16.90;;;10.90;;
3280;SDS011;1652;51.318;6.202;2023-10-31T02:49:22;17.80;;;10.50;;
3280;SDS011;1652;51.318;6.202;2023-10-31T02:51:49;15.10;;;11.07;;
3280;SDS011;1652;51.318;6.202;2023-10-31T02:54:16;20.40;;;12.30;;
3280;SDS011;1652;51.318;6.202;2023-10-31T02:56:43;16.63;;;9.77;;
3280;SDS011;1652;51.318;6.202;2023-10-31T02:59:10;17.53;;;11.17;;
3280;SDS011;1652;51.318;6.202;2023-10-31T03:01:37;25.90;;;14.33;;
3280;SDS011;1652;51.318;6.202;2023-10-31T03:04:04;26.03;;;16.10;;
3280;SDS011;1652;51.318;6.202;2023-10-31T03:06:31;16.83;;;12.20;;
3280;SDS011;1652;51.318;6.202;2023-10-31T03:08:58;17.87;;;11.93;;
3280;SDS011;1652;51.318;6.202;2023-10-31T03:11:26;22.07;;;14.53;;
3280;SDS011;1652;51.318;6.202;2023-10-31T03:13:53;17.10;;;11.80;;
3280;SDS011;1652;51.318;6.202;2023-10-31T03:16:22;21.90;;;13.83;;
3280;SDS011;1652;51.318;6.202;2023-10-31T03:18:49;22.47;;;13.17;;
3280;SDS011;1652;51.318;6.202;2023-10-31T03:21:17;31.33;;;14.40;;
3280;SDS011;1652;51.318;6.202;2023-10-31T03:23:47;22.90;;;13.67;;
3280;SDS011;1652;51.318;6.202;2023-10-31T03:26:16;21.10;;;14.33;;
3280;SDS011;1652;51.318;6.202;2023-10-31T03:28:44;23.40;;;14.50;;
3280;SDS011;1652;51.318;6.202;2023-10-31T03:31:11;23.13;;;13.50;;
3280;SDS011;1652;51.318;6.202;2023-10-31T03:33:38;23.20;;;13.07;;
3280;SDS011;1652;51.318;6.202;2023-10-31T03:36:06;18.23;;;12.13;;
3280;SDS011;1652;51.318;6.202;2023-10-31T03:38:34;21.70;;;14.10;;
3280;SDS011;1652;51.318;6.202;2023-10-31T03:41:02;19.30;;;12.87;;
3280;SDS011;1652;51.318;6.202;2023-10-31T03:43:30;27.77;;;13.33;;
3280;SDS011;1652;51.318;6.202;2023-10-31T03:45:57;25.37;;;12.07;;
3280;SDS011;1652;51.318;6.202;2023-10-31T03:48:24;25.60;;;12.40;;
3280;SDS011;1652;51.318;6.202;2023-10-31T03:50:51;18.60;;;11.77;;
3280;SDS011;1652;51.318;6.202;2023-10-31T03:53:18;25.30;;;13.03;;
3280;SDS011;1652;51.318;6.202;2023-10-31T03:55:45;17.50;;;11.30;;
3280;SDS011;1652;51.318;6.202;2023-10-31T03:58:12;30.97;;;16.27;;
3280;SDS011;1652;51.318;6.202;2023-10-31T04:00:39;31.50;;;14.30;;
3280;SDS011;1652;51.318;6.202;2023-10-31T04:03:07;29.70;;;12.10;;
3280;SDS011;1652;51.318;6.202;2023-10-31T04:05:35;21.13;;;12.43;;
3280;SDS011;1652;51.318;6.202;2023-10-31T04:08:02;25.53;;;13.27;;
3280;SDS011;1652;51.318;6.202;2023-10-31T04:10:29;18.87;;;12.20;;
3280;SDS011;1652;51.318;6.202;2023-10-31T04:12:55;20.57;;;12.70;;
3280;SDS011;1652;51.318;6.202;2023-10-31T04:15:22;20.80;;;12.20;;
3280;SDS011;1652;51.318;6.202;2023-10-31T04:17:49;22.40;;;13.50;;
3280;SDS011;1652;51.318;6.202;2023-10-31T04:20:16;23.50;;;14.03;;
3280;SDS011;1652;51.318;6.202;2023-10-31T04:22:43;21.17;;;12.90;;
3280;SDS011;1652;51.318;6.202;2023-10-31T04:25:10;19.03;;;13.10;;
3280;SDS011;1652;51.318;6.202;2023-10-31T04:27:37;20.70;;;12.50;;
3280;SDS011;1652;51.318;6.202;2023-10-31T04:30:04;21.70;;;13.30;;
3280;SDS011;1652;51.318;6.202;2023-10-31T04:32:31;17.60;;;12.67;;
3280;SDS011;1652;51.318;6.202;2023-10-31T04:34:58;24.60;;;12.33;;
3280;SDS011;1652;51.318;6.202;2023-10-31T04:37:25;21.70;;;12.80;;
3280;SDS011;1652;51.318;6.202;2023-10-31T04:39:52;18.40;;;13.30;;
3280;SDS011;1652;51.318;6.202;2023-10-31T04:42:19;23.20;;;13.73;;
3280;SDS011;1652;51.318;6.202;2023-10-31T04:44:46;24.60;;;13.60;;
3280;SDS011;1652;51.318;6.202;2023-10-31T04:47:13;16.83;;;12.57;;
3280;SDS011;1652;51.318;6.202;2023-10-31T04:49:40;21.20;;;13.00;;
3280;SDS011;1652;51.318;6.202;2023-10-31T04:52:07;21.87;;;12.30;;
3280;SDS011;1652;51.318;6.202;2023-10-31T04:54:34;18.40;;;14.00;;
3280;SDS011;1652;51.318;6.202;2023-10-31T04:57:01;22.20;;;13.10;;
3280;SDS011;1652;51.318;6.202;2023-10-31T04:59:30;18.90;;;12.90;;
3280;SDS011;1652;51.318;6.202;2023-10-31T05:01:57;16.30;;;11.53;;
3280;SDS011;1652;51.318;6.202;2023-10-31T05:04:24;18.30;;;11.90;;
3280;SDS011;1652;51.318;6.202;2023-10-31T05:06:51;24.20;;;11.97;;
3280;SDS011;1652;51.318;6.202;2023-10-31T05:09:18;16.63;;;11.90;;
3280;SDS011;1652;51.318;6.202;2023-10-31T05:11:47;19.20;;;11.53;;
3280;SDS011;1652;51.318;6.202;2023-10-31T05:14:14;19.50;;;12.60;;
3280;SDS011;1652;51.318;6.202;2023-10-31T05:16:41;22.10;;;14.17;;
3280;SDS011;1652;51.318;6.202;2023-10-31T05:19:09;15.53;;;11.33;;
3280;SDS011;1652;51.318;6.202;2023-10-31T05:21:36;18.07;;;11.33;;
3280;SDS011;1652;51.318;6.202;2023-10-31T05:24:03;15.70;;;11.70;;
3280;SDS011;1652;51.318;6.202;2023-10-31T05:26:31;16.47;;;12.07;;
3280;SDS011;1652;51.318;6.202;2023-10-31T05:28:58;23.13;;;13.10;;
3280;SDS011;1652;51.318;6.202;2023-10-31T05:31:25;18.50;;;12.57;;
3280;SDS011;1652;51.318;6.202;2023-10-31T05:33:52;22.97;;;13.23;;
3280;SDS011;1652;51.318;6.202;2023-10-31T05:36:19;19.00;;;13.17;;
3280;SDS011;1652;51.318;6.202;2023-10-31T05:38:46;17.13;;;13.03;;
3280;SDS011;1652;51.318;6.202;2023-10-31T05:41:14;20.47;;;14.07;;
3280;SDS011;1652;51.318;6.202;2023-10-31T05:43:42;22.13;;;13.57;;
3280;SDS011;1652;51.318;6.202;2023-10-31T05:46:10;17.60;;;12.83;;
3280;SDS011;1652;51.318;6.202;2023-10-31T05:48:37;17.30;;;13.27;;
3280;SDS011;1652;51.318;6.202;2023-10-31T05:51:27;19.33;;;12.87;;
3280;SDS011;1652;51.318;6.202;2023-10-31T05:53:52;19.00;;;14.17;;
3280;SDS011;1652;51.318;6.202;2023-10-31T05:56:19;33.33;;;15.30;;
3280;SDS011;1652;51.318;6.202;2023-10-31T05:58:46;18.47;;;14.07;;
3280;SDS011;1652;51.318;6.202;2023-10-31T06:01:13;19.43;;;14.40;;
3280;SDS011;1652;51.318;6.202;2023-10-31T06:03:43;20.73;;;14.60;;
3280;SDS011;1652;51.318;6.202;2023-10-31T06:06:11;22.03;;;15.20;;
3280;SDS011;1652;51.318;6.202;2023-10-31T06:08:39;24.43;;;14.60;;
3280;SDS011;1652;51.318;6.202;2023-10-31T06:11:06;23.67;;;15.07;;
3280;SDS011;1652;51.318;6.202;2023-10-31T06:13:33;20.23;;;15.20;;
3280;SDS011;1652;51.318;6.202;2023-10-31T06:16:00;25.20;;;15.27;;
3280;SDS011;1652;51.318;6.202;2023-10-31T06:18:28;22.73;;;14.70;;
3280;SDS011;1652;51.318;6.202;2023-10-31T06:20:55;23.83;;;16.27;;
3280;SDS011;1652;51.318;6.202;2023-10-31T06:23:22;20.10;;;13.47;;
3280;SDS011;1652;51.318;6.202;2023-10-31T06:25:49;26.40;;;15.17;;
3280;SDS011;1652;51.318;6.202;2023-10-31T06:28:16;20.73;;;14.70;;
3280;SDS011;1652;51.318;6.202;2023-10-31T06:30:43;19.13;;;13.43;;
3280;SDS011;1652;51.318;6.202;2023-10-31T06:33:10;22.47;;;14.90;;
3280;SDS011;1652;51.318;6.202;2023-10-31T06:35:38;28.00;;;16.63;;
3280;SDS011;1652;51.318;6.202;2023-10-31T06:38:05;23.93;;;15.33;;
3280;SDS011;1652;51.318;6.202;2023-10-31T06:40:32;21.17;;;15.10;;
3280;SDS011;1652;51.318;6.202;2023-10-31T06:43:00;23.20;;;16.17;;
3280;SDS011;1652;51.318;6.202;2023-10-31T06:45:30;22.57;;;14.83;;
3280;SDS011;1652;51.318;6.202;2023-10-31T06:47:57;19.90;;;14.93;;
3280;SDS011;1652;51.318;6.202;2023-10-31T06:50:24;24.17;;;15.50;;
3280;SDS011;1652;51.318;6.202;2023-10-31T06:52:51;23.40;;;15.40;;
3280;SDS011;1652;51.318;6.202;2023-10-31T06:55:18;22.80;;;14.40;;
3280;SDS011;1652;51.318;6.202;2023-10-31T07:00:17;20.27;;;14.23;;
3280;SDS011;1652;51.318;6.202;2023-10-31T07:02:44;19.60;;;14.07;;
3280;SDS011;1652;51.318;6.202;2023-10-31T07:05:11;18.87;;;14.10;;
3280;SDS011;1652;51.318;6.202;2023-10-31T07:07:38;54.70;;;32.20;;
3280;SDS011;1652;51.318;6.202;2023-10-31T07:10:05;27.10;;;15.50;;
3280;SDS011;1652;51.318;6.202;2023-10-31T07:12:32;19.17;;;13.60;;
3280;SDS011;1652;51.318;6.202;2023-10-31T07:14:59;22.93;;;14.57;;
3280;SDS011;1652;51.318;6.202;2023-10-31T07:17:26;24.63;;;15.10;;
3280;SDS011;1652;51.318;6.202;2023-10-31T07:19:53;16.23;;;12.30;;
3280;SDS011;1652;51.318;6.202;2023-10-31T07:22:20;22.37;;;14.97;;
3280;SDS011;1652;51.318;6.202;2023-10-31T07:24:49;18.17;;;12.53;;
3280;SDS011;1652;51.318;6.202;2023-10-31T07:27:16;27.83;;;15.20;;
3280;SDS011;1652;51.318;6.202;2023-10-31T07:29:43;19.60;;;13.93;;
3280;SDS011;1652;51.318;6.202;2023-10-31T07:32:10;19.07;;;11.77;;
3280;SDS011;1652;51.318;6.202;2023-10-31T07:34:40;18.63;;;11.80;;
3280;SDS011;1652;51.318;6.202;2023-10-31T07:37:08;15.40;;;12.07;;
3280;SDS011;1652;51.318;6.202;2023-10-31T07:39:35;12.33;;;10.93;;
3280;SDS011;1652;51.318;6.202;2023-10-31T07:42:02;13.73;;;10.37;;
3280;SDS011;1652;51.318;6.202;2023-10-31T07:44:29;11.87;;;10.50;;
3280;SDS011;1652;51.318;6.202;2023-10-31T07:46:56;14.53;;;11.57;;
3280;SDS011;1652;51.318;6.202;2023-10-31T07:49:23;12.60;;;9.33;;
3280;SDS011;1652;51.318;6.202;2023-10-31T07:51:50;13.30;;;10.10;;
3280;SDS011;1652;51.318;6.202;2023-10-31T07:54:17;14.93;;;9.70;;
3280;SDS011;1652;51.318;6.202;2023-10-31T07:56:45;9.50;;;8.53;;
3280;SDS011;1652;51.318;6.202;2023-10-31T07:59:12;9.50;;;8.47;;
3280;SDS011;1652;51.318;6.202;2023-10-31T08:01:39;14.10;;;9.43;;
3280;SDS011;1652;51.318;6.202;2023-10-31T08:04:06;11.97;;;9.60;;
3280;SDS011;1652;51.318;6.202;2023-10-31T08:06:33;9.23;;;8.30;;
3280;SDS011;1652;51.318;6.202;2023-10-31T08:09:00;20.17;;;10.87;;
3280;SDS011;1652;51.318;6.202;2023-10-31T08:11:27;9.77;;;8.37;;
3280;SDS011;1652;51.318;6.202;2023-10-31T08:13:54;14.70;;;9.07;;
3280;SDS011;1652;51.318;6.202;2023-10-31T08:16:21;11.73;;;9.23;;
3280;SDS011;1652;51.318;6.202;2023-10-31T08:18:48;10.73;;;8.53;;
3280;SDS011;1652;51.318;6.202;2023-10-31T08:21:15;11.30;;;8.93;;
3280;SDS011;1652;51.318;6.202;2023-10-31T08:23:42;10.23;;;9.23;;
3280;SDS011;1652;51.318;6.202;2023-10-31T08:26:11;10.87;;;8.93;;
3280;SDS011;1652;51.318;6.202;2023-10-31T08:28:39;12.00;;;8.63;;
3280;SDS011;1652;51.318;6.202;2023-10-31T08:31:07;12.07;;;8.70;;
3280;SDS011;1652;51.318;6.202;2023-10-31T08:33:34;9.90;;;8.80;;
3280;SDS011;1652;51.318;6.202;2023-10-31T08:36:01;10.97;;;9.40;;
3280;SDS011;1652;51.318;6.202;2023-10-31T08:38:28;12.30;;;9.77;;
3280;SDS011;1652;51.318;6.202;2023-10-31T08:40:58;13.63;;;9.90;;
3280;SDS011;1652;51.318;6.202;2023-10-31T08:43:26;14.07;;;11.60;;
3280;SDS011;1652;51.318;6.202;2023-10-31T08:45:53;11.87;;;9.63;;
3280;SDS011;1652;51.318;6.202;2023-10-31T08:48:20;12.80;;;9.37;;
3280;SDS011;1652;51.318;6.202;2023-10-31T08:50:47;10.53;;;9.43;;
3280;SDS011;1652;51.318;6.202;2023-10-31T08:53:14;15.50;;;10.30;;
3280;SDS011;1652;51.318;6.202;2023-10-31T08:55:42;13.87;;;10.43;;
3280;SDS011;1652;51.318;6.202;2023-10-31T08:58:11;12.20;;;10.27;;
3280;SDS011;1652;51.318;6.202;2023-10-31T09:00:39;17.50;;;10.17;;
3280;SDS011;1652;51.318;6.202;2023-10-31T09:03:09;18.17;;;10.60;;
3280;SDS011;1652;51.318;6.202;2023-10-31T09:05:37;11.90;;;8.83;;
3280;SDS011;1652;51.318;6.202;2023-10-31T09:08:03;11.47;;;9.23;;
3280;SDS011;1652;51.318;6.202;2023-10-31T09:10:32;14.57;;;9.37;;
3280;SDS011;1652;51.318;6.202;2023-10-31T09:13:00;12.57;;;9.97;;
3280;SDS011;1652;51.318;6.202;2023-10-31T09:15:27;10.27;;;8.97;;
3280;SDS011;1652;51.318;6.202;2023-10-31T09:17:53;10.13;;;8.43;;
3280;SDS011;1652;51.318;6.202;2023-10-31T09:20:21;11.17;;;9.07;;
3280;SDS011;1652;51.318;6.202;2023-10-31T09:22:47;11.23;;;8.50;;
3280;SDS011;1652;51.318;6.202;2023-10-31T09:25:14;9.07;;;8.17;;
3280;SDS011;1652;51.318;6.202;2023-10-31T09:27:41;12.37;;;8.80;;
3280;SDS011;1652;51.318;6.202;2023-10-31T09:30:08;13.63;;;9.03;;
3280;SDS011;1652;51.318;6.202;2023-10-31T09:32:35;9.33;;;8.37;;
3280;SDS011;1652;51.318;6.202;2023-10-31T09:35:03;14.47;;;9.03;;
3280;SDS011;1652;51.318;6.202;2023-10-31T09:37:30;9.50;;;7.50;;
3280;SDS011;1652;51.318;6.202;2023-10-31T09:39:57;19.27;;;13.50;;
3280;SDS011;1652;51.318;6.202;2023-10-31T09:42:24;7.20;;;6.50;;
3280;SDS011;1652;51.318;6.202;2023-10-31T09:44:51;8.60;;;6.80;;
3280;SDS011;1652;51.318;6.202;2023-10-31T09:47:19;13.97;;;10.67;;
3280;SDS011;1652;51.318;6.202;2023-10-31T09:49:47;10.70;;;6.80;;
3280;SDS011;1652;51.318;6.202;2023-10-31T09:52:14;8.17;;;6.90;;
3280;SDS011;1652;51.318;6.202;2023-10-31T09:54:41;13.17;;;7.57;;
3280;SDS011;1652;51.318;6.202;2023-10-31T09:57:11;8.20;;;6.43;;
3280;SDS011;1652;51.318;6.202;2023-10-31T09:59:39;14.10;;;8.27;;
3280;SDS011;1652;51.318;6.202;2023-10-31T10:02:07;7.27;;;6.60;;
3280;SDS011;1652;51.318;6.202;2023-10-31T10:04:34;7.63;;;5.37;;
3280;SDS011;1652;51.318;6.202;2023-10-31T10:07:02;9.07;;;6.50;;
3280;SDS011;1652;51.318;6.202;2023-10-31T10:09:30;7.33;;;4.90;;
3280;SDS011;1652;51.318;6.202;2023-10-31T10:11:59;5.40;;;4.90;;
3280;SDS011;1652;51.318;6.202;2023-10-31T10:14:27;11.53;;;5.67;;
3280;SDS011;1652;51.318;6.202;2023-10-31T10:16:55;13.50;;;11.00;;
3280;SDS011;1652;51.318;6.202;2023-10-31T10:19:22;6.07;;;5.00;;
3280;SDS011;1652;51.318;6.202;2023-10-31T10:21:50;5.50;;;5.10;;
3280;SDS011;1652;51.318;6.202;2023-10-31T10:24:19;5.07;;;4.30;;
3280;SDS011;1652;51.318;6.202;2023-10-31T10:26:47;6.43;;;4.63;;
3280;SDS011;1652;51.318;6.202;2023-10-31T10:29:15;5.73;;;4.30;;
3280;SDS011;1652;51.318;6.202;2023-10-31T10:31:42;5.30;;;4.90;;
3280;SDS011;1652;51.318;6.202;2023-10-31T10:34:09;5.37;;;4.87;;
3280;SDS011;1652;51.318;6.202;2023-10-31T10:36:38;7.40;;;6.70;;
3280;SDS011;1652;51.318;6.202;2023-10-31T10:39:06;4.37;;;4.07;;
3280;SDS011;1652;51.318;6.202;2023-10-31T10:41:34;4.67;;;4.30;;
3280;SDS011;1652;51.318;6.202;2023-10-31T10:44:06;7.67;;;3.77;;
3280;SDS011;1652;51.318;6.202;2023-10-31T10:46:34;4.30;;;3.90;;
3280;SDS011;1652;51.318;6.202;2023-10-31T10:49:08;19.00;;;13.53;;
3280;SDS011;1652;51.318;6.202;2023-10-31T10:51:52;4.80;;;3.73;;
3280;SDS011;1652;51.318;6.202;2023-10-31T10:54:26;5.13;;;4.73;;
3280;SDS011;1652;51.318;6.202;2023-10-31T10:57:19;7.67;;;4.93;;
3280;SDS011;1652;51.318;6.202;2023-10-31T11:00:05;3.53;;;3.23;;
3280;SDS011;1652;51.318;6.202;2023-10-31T11:02:39;7.30;;;2.90;;
3280;SDS011;1652;51.318;6.202;2023-10-31T11:05:09;3.20;;;3.00;;
3280;SDS011;1652;51.318;6.202;2023-10-31T11:07:36;4.70;;;2.90;;
3280;SDS011;1652;51.318;6.202;2023-10-31T11:10:04;3.13;;;2.93;;
3280;SDS011;1652;51.318;6.202;2023-10-31T11:12:32;12.10;;;3.63;;
3280;SDS011;1652;51.318;6.202;2023-10-31T11:15:00;4.20;;;3.03;;
3280;SDS011;1652;51.318;6.202;2023-10-31T11:17:33;5.00;;;2.70;;
3280;SDS011;1652;51.318;6.202;2023-10-31T11:20:03;6.00;;;3.20;;
3280;SDS011;1652;51.318;6.202;2023-10-31T11:22:38;7.00;;;5.10;;
3280;SDS011;1652;51.318;6.202;2023-10-31T11:25:09;4.50;;;2.90;;
3280;SDS011;1652;51.318;6.202;2023-10-31T11:27:51;3.00;;;2.80;;
3280;SDS011;1652;51.318;6.202;2023-10-31T11:32:51;5.77;;;2.40;;
3280;SDS011;1652;51.318;6.202;2023-10-31T11:35:19;3.20;;;2.70;;
3280;SDS011;1652;51.318;6.202;2023-10-31T11:37:47;5.83;;;2.93;;
3280;SDS011;1652;51.318;6.202;2023-10-31T11:40:16;4.90;;;4.27;;
3280;SDS011;1652;51.318;6.202;2023-10-31T11:42:48;30.63;;;21.33;;
3280;SDS011;1652;51.318;6.202;2023-10-31T11:45:35;9.90;;;2.90;;
3280;SDS011;1652;51.318;6.202;2023-10-31T11:48:07;4.40;;;3.53;;
3280;SDS011;1652;51.318;6.202;2023-10-31T11:50:34;4.47;;;2.20;;
3280;SDS011;1652;51.318;6.202;2023-10-31T11:53:12;2.83;;;2.63;;
3280;SDS011;1652;51.318;6.202;2023-10-31T11:55:43;2.67;;;2.30;;
3280;SDS011;1652;51.318;6.202;2023-10-31T11:58:16;4.23;;;2.30;;
3280;SDS011;1652;51.318;6.202;2023-10-31T12:00:46;1.93;;;1.83;;
3280;SDS011;1652;51.318;6.202;2023-10-31T12:03:16;2.30;;;2.20;;
3280;SDS011;1652;51.318;6.202;2023-10-31T12:05:50;3.20;;;1.90;;
3280;SDS011;1652;51.318;6.202;2023-10-31T12:08:28;2.10;;;1.87;;
3280;SDS011;1652;51.318;6.202;2023-10-31T12:11:04;4.43;;;1.87;;
3280;SDS011;1652;51.318;6.202;2023-10-31T12:13:31;9.10;;;2.30;;
3280;SDS011;1652;51.318;6.202;2023-10-31T12:15:58;6.53;;;1.90;;
3280;SDS011;1652;51.318;6.202;2023-10-31T12:18:27;2.23;;;1.50;;
3280;SDS011;1652;51.318;6.202;2023-10-31T12:20:55;2.03;;;1.93;;
3280;SDS011;1652;51.318;6.202;2023-10-31T12:23:22;2.33;;;2.07;;
3280;SDS011;1652;51.318;6.202;2023-10-31T12:25:52;4.50;;;2.07;;
3280;SDS011;1652;51.318;6.202;2023-10-31T12:28:20;2.50;;;2.30;;
3280;SDS011;1652;51.318;6.202;2023-10-31T12:30:49;2.40;;;1.73;;
3280;SDS011;1652;51.318;6.202;2023-10-31T12:33:17;3.67;;;1.37;;
3280;SDS011;1652;51.318;6.202;2023-10-31T12:35:44;3.17;;;2.30;;
3280;SDS011;1652;51.318;6.202;2023-10-31T12:38:12;1.70;;;1.20;;
3280;SDS011;1652;51.318;6.202;2023-10-31T12:40:40;4.00;;;1.00;;
3280;SDS011;1652;51.318;6.202;2023-10-31T12:43:09;5.83;;;1.30;;
3280;SDS011;1652;51.318;6.202;2023-10-31T12:45:36;1.30;;;1.20;;
3280;SDS011;1652;51.318;6.202;2023-10-31T12:48:05;3.67;;;3.37;;
3280;SDS011;1652;51.318;6.202;2023-10-31T12:50:33;14.57;;;5.10;;
3280;SDS011;1652;51.318;6.202;2023-10-31T12:53:03;9.07;;;6.40;;
3280;SDS011;1652;51.318;6.202;2023-10-31T12:55:30;2.37;;;2.20;;
3280;SDS011;1652;51.318;6.202;2023-10-31T12:58:03;2.40;;;2.07;;
3280;SDS011;1652;51.318;6.202;2023-10-31T13:00:34;5.07;;;2.60;;
3280;SDS011;1652;51.318;6.202;2023-10-31T13:03:03;8.03;;;5.63;;
3280;SDS011;1652;51.318;6.202;2023-10-31T13:05:32;2.20;;;1.40;;
3280;SDS011;1652;51.318;6.202;2023-10-31T13:08:02;3.93;;;2.10;;
3280;SDS011;1652;51.318;6.202;2023-10-31T13:10:32;2.40;;;1.20;;
3280;SDS011;1652;51.318;6.202;2023-10-31T13:12:59;2.67;;;1.53;;
3280;SDS011;1652;51.318;6.202;2023-10-31T13:15:27;1.50;;;1.40;;
3280;SDS011;1652;51.318;6.202;2023-10-31T13:17:54;1.80;;;1.60;;
3280;SDS011;1652;51.318;6.202;2023-10-31T13:20:21;3.50;;;2.73;;
3280;SDS011;1652;51.318;6.202;2023-10-31T13:22:48;10.10;;;1.87;;
3280;SDS011;1652;51.318;6.202;2023-10-31T13:25:16;4.10;;;1.77;;
3280;SDS011;1652;51.318;6.202;2023-10-31T13:27:43;4.13;;;1.60;;
3280;SDS011;1652;51.318;6.202;2023-10-31T13:30:11;5.73;;;3.20;;
3280;SDS011;1652;51.318;6.202;2023-10-31T13:32:40;1.40;;;1.23;;
3280;SDS011;1652;51.318;6.202;2023-10-31T13:35:07;1.57;;;1.47;;
3280;SDS011;1652;51.318;6.202;2023-10-31T13:37:39;1.50;;;1.40;;
3280;SDS011;1652;51.318;6.202;2023-10-31T13:40:06;3.10;;;2.10;;
3280;SDS011;1652;51.318;6.202;2023-10-31T13:42:36;4.17;;;2.30;;
3280;SDS011;1652;51.318;6.202;2023-10-31T13:45:03;2.50;;;2.30;;
3280;SDS011;1652;51.318;6.202;2023-10-31T13:47:32;2.20;;;1.60;;
3280;SDS011;1652;51.318;6.202;2023-10-31T13:49:59;2.17;;;1.67;;
3280;SDS011;1652;51.318;6.202;2023-10-31T13:52:27;3.63;;;2.10;;
3280;SDS011;1652;51.318;6.202;2023-10-31T13:54:53;4.40;;;1.87;;
3280;SDS011;1652;51.318;6.202;2023-10-31T13:57:20;3.90;;;2.53;;
3280;SDS011;1652;51.318;6.202;2023-10-31T13:59:49;5.13;;;2.83;;
3280;SDS011;1652;51.318;6.202;2023-10-31T14:02:16;8.90;;;2.73;;
3280;SDS011;1652;51.318;6.202;2023-10-31T14:04:44;2.57;;;2.37;;
3280;SDS011;1652;51.318;6.202;2023-10-31T14:07:13;14.50;;;2.13;;
3280;SDS011;1652;51.318;6.202;2023-10-31T14:09:48;1.60;;;1.50;;
3280;SDS011;1652;51.318;6.202;2023-10-31T14:12:16;6.67;;;2.30;;
3280;SDS011;1652;51.318;6.202;2023-10-31T14:14:43;6.80;;;2.57;;
3280;SDS011;1652;51.318;6.202;2023-10-31T14:17:10;7.93;;;2.60;;
3280;SDS011;1652;51.318;6.202;2023-10-31T14:19:38;4.13;;;2.40;;
3280;SDS011;1652;51.318;6.202;2023-10-31T14:22:06;6.87;;;2.43;;
3280;SDS011;1652;51.318;6.202;2023-10-31T14:24:34;4.17;;;2.90;;
3280;SDS011;1652;51.318;6.202;2023-10-31T14:27:01;3.20;;;2.10;;
3280;SDS011;1652;51.318;6.202;2023-10-31T14:29:28;3.70;;;2.87;;
3280;SDS011;1652;51.318;6.202;2023-10-31T14:31:55;7.83;;;2.37;;
3280;SDS011;1652;51.318;6.202;2023-10-31T14:34:23;5.67;;;2.10;;
3280;SDS011;1652;51.318;6.202;2023-10-31T14:36:50;6.90;;;2.90;;
3280;SDS011;1652;51.318;6.202;2023-10-31T14:39:17;4.33;;;2.00;;
3280;SDS011;1652;51.318;6.202;2023-10-31T14:41:44;8.40;;;2.10;;
3280;SDS011;1652;51.318;6.202;2023-10-31T14:44:11;3.10;;;1.87;;
3280;SDS011;1652;51.318;6.202;2023-10-31T14:46:38;3.93;;;2.00;;
3280;SDS011;1652;51.318;6.202;2023-10-31T14:49:06;2.70;;;2.50;;
3280;SDS011;1652;51.318;6.202;2023-10-31T14:51:33;3.23;;;2.20;;
3280;SDS011;1652;51.318;6.202;2023-10-31T14:54:00;6.13;;;3.50;;
3280;SDS011;1652;51.318;6.202;2023-10-31T14:56:27;10.33;;;5.40;;
3280;SDS011;1652;51.318;6.202;2023-10-31T14:58:56;6.23;;;4.07;;
3280;SDS011;1652;51.318;6.202;2023-10-31T15:01:23;14.73;;;7.07;;
3280;SDS011;1652;51.318;6.202;2023-10-31T15:03:50;4.80;;;3.90;;
3280;SDS011;1652;51.318;6.202;2023-10-31T15:06:20;9.80;;;2.90;;
3280;SDS011;1652;51.318;6.202;2023-10-31T15:08:47;7.40;;;4.27;;
3280;SDS011;1652;51.318;6.202;2023-10-31T15:11:15;4.30;;;2.60;;